Time;durP1;ratioP1;P1;durP2;ratioP2;P2;SDS_P1;SDS_P2;PMS_P1;PMS_P2;Temp;Humidity;BMP_temperature;BMP_pressure;BME280_temperature;BME280_humidity;BME280_pressure;Samples;Min_cycle;Max_cycle;Signal;HPM_P1;HPM_P2
2021/05/23 00:00:53;;;;;;;12.65;3.55;;;;;;;21.22;46.40;99353.22;5074943;28;20053;-77
2021/05/23 00:03:18;;;;;;;9.85;3.45;;;;;;;21.22;46.34;99360.53;5057333;28;20076;-77
2021/05/23 00:05:45;;;;;;;9.43;4.10;;;;;;;21.21;46.31;99353.38;5057020;28;20143;-76
2021/05/23 00:08:13;;;;;;;9.98;3.60;;;;;;;21.20;46.24;99357.13;5075554;28;20117;-77
2021/05/23 00:10:45;;;;;;;11.57;3.67;;;;;;;21.20;46.26;99346.25;5007457;28;20044;-76
2021/05/23 00:13:11;;;;;;;10.02;3.40;;;;;;;21.22;46.16;99355.09;5023515;28;20067;-76
2021/05/23 00:15:40;;;;;;;14.20;4.75;;;;;;;21.26;46.39;99359.09;5057057;28;20040;-76
2021/05/23 00:18:06;;;;;;;8.68;3.15;;;;;;;21.25;46.17;99354.69;5073472;28;20043;-76
2021/05/23 00:20:32;;;;;;;14.25;3.60;;;;;;;21.25;46.18;99360.13;5023813;28;20037;-75
2021/05/23 00:22:58;;;;;;;9.43;3.70;;;;;;;21.23;46.08;99363.03;5040568;28;20047;-75
2021/05/23 00:25:24;;;;;;;12.45;3.35;;;;;;;21.27;46.01;99366.22;5023604;28;20041;-76
2021/05/23 00:27:50;;;;;;;12.32;3.30;;;;;;;21.25;45.79;99360.97;5056316;28;20148;-77
2021/05/23 00:30:17;;;;;;;7.82;3.17;;;;;;;21.32;45.43;99370.03;5039883;28;20056;-76
2021/05/23 00:32:43;;;;;;;8.00;3.80;;;;;;;21.27;45.37;99358.91;5023609;28;20507;-75
2021/05/23 00:35:09;;;;;;;9.20;3.72;;;;;;;21.31;45.40;99367.53;5056475;28;20518;-75
2021/05/23 00:37:35;;;;;;;9.25;3.17;;;;;;;21.35;45.10;99371.56;5073364;28;20067;-77
2021/05/23 00:40:01;;;;;;;8.13;3.38;;;;;;;21.42;45.01;99372.50;5041000;28;20044;-77
2021/05/23 00:42:30;;;;;;;8.60;3.60;;;;;;;21.42;44.95;99372.50;5074233;28;20571;-76
2021/05/23 00:44:56;;;;;;;8.55;2.95;;;;;;;21.49;44.67;99384.28;5056555;28;20127;-75
2021/05/23 00:47:22;;;;;;;10.10;3.22;;;;;;;21.54;44.61;99384.53;5039368;28;20067;-75
2021/05/23 00:49:48;;;;;;;7.70;2.92;;;;;;;21.52;44.55;99378.47;5056447;28;20076;-75
2021/05/23 00:52:14;;;;;;;8.38;3.50;;;;;;;21.57;44.37;99381.44;5039684;28;20131;-77
2021/05/23 00:54:40;;;;;;;10.32;3.30;;;;;;;21.61;44.45;99375.63;5023162;28;20036;-76
2021/05/23 00:57:06;;;;;;;9.85;3.30;;;;;;;21.68;44.43;99392.88;5056573;28;20040;-76
2021/05/23 00:59:32;;;;;;;7.75;2.97;;;;;;;21.66;44.34;99384.88;5056442;28;20048;-75
2021/05/23 01:01:58;;;;;;;12.52;3.22;;;;;;;21.76;44.28;99395.44;5039932;28;20044;-76
2021/05/23 01:04:24;;;;;;;15.38;3.67;;;;;;;21.75;44.01;99394.63;5072455;28;20189;-75
2021/05/23 01:06:50;;;;;;;8.85;3.20;;;;;;;21.79;44.02;99401.34;5040089;28;20041;-78
2021/05/23 01:09:18;;;;;;;9.73;3.10;;;;;;;21.83;43.77;99391.75;5022640;28;20083;-77
2021/05/23 01:11:43;;;;;;;12.75;3.00;;;;;;;21.96;43.69;99403.81;5006425;28;20109;-76
2021/05/23 01:14:35;;;;;;;8.98;3.20;;;;;;;21.93;43.39;99394.16;5073669;28;20535;-76
2021/05/23 01:17:01;;;;;;;5.65;2.80;;;;;;;22.01;43.17;99410.38;5072572;28;20055;-76
2021/05/23 01:19:32;;;;;;;5.75;3.03;;;;;;;22.04;43.04;99404.53;5055630;28;20045;-75
2021/05/23 01:22:11;;;;;;;12.02;3.47;;;;;;;22.05;42.92;99395.31;5055944;28;20052;-75
2021/05/23 01:24:41;;;;;;;;;;;;;;;22.07;43.07;99395.13;5023295;28;20052;-76
2021/05/23 01:27:08;;;;;;;5.50;3.00;;;;;;;22.11;42.92;99399.13;5038985;28;19920;-75
2021/05/23 01:29:34;;;;;;;7.22;3.38;;;;;;;22.03;42.91;99397.38;5055296;28;20119;-75
2021/05/23 01:32:00;;;;;;;7.70;3.13;;;;;;;22.05;42.77;99395.31;5022394;28;20117;-75
2021/05/23 01:34:26;;;;;;;15.60;3.15;;;;;;;22.14;42.84;99392.50;5072048;28;20036;-76
2021/05/23 01:36:54;;;;;;;5.68;3.10;;;;;;;22.16;42.60;99406.75;5055497;28;20044;-76
2021/05/23 01:39:20;;;;;;;8.60;2.90;;;;;;;22.21;42.44;99398.84;5038965;28;20549;-76
2021/05/23 01:41:46;;;;;;;12.50;4.00;;;;;;;22.25;42.56;99394.69;5073088;28;20138;-75
2021/05/23 01:44:12;;;;;;;12.35;3.17;;;;;;;22.25;42.42;99400.13;5055368;28;20047;-74
2021/05/23 01:46:38;;;;;;;11.73;3.60;;;;;;;22.27;42.49;99398.06;5038974;28;20040;-75
2021/05/23 01:49:04;;;;;;;11.93;3.00;;;;;;;22.35;42.29;99399.81;5056151;28;20055;-78
2021/05/23 01:51:30;;;;;;;7.00;2.78;;;;;;;22.33;42.09;99399.97;5056750;28;20484;-79
2021/05/23 01:53:56;;;;;;;8.10;2.60;;;;;;;22.30;42.39;99411.25;5040132;28;20044;-76
2021/05/23 01:56:22;;;;;;;11.77;3.15;;;;;;;22.30;42.46;99405.81;5055315;28;20091;-77
2021/05/23 01:58:48;;;;;;;7.15;3.10;;;;;;;22.33;42.37;99407.31;5055122;28;20140;-76
2021/05/23 02:01:20;;;;;;;11.10;3.30;;;;;;;22.37;42.43;99398.53;5040690;28;20044;-76
2021/05/23 02:03:46;;;;;;;8.55;2.83;;;;;;;22.38;42.67;99402.97;5072564;28;20044;-76
2021/05/23 02:06:12;;;;;;;11.65;3.00;;;;;;;22.50;42.33;99398.66;5072910;28;20040;-76
2021/05/23 02:08:38;;;;;;;11.18;3.30;;;;;;;22.39;42.57;99401.94;5054927;28;20140;-78
2021/05/23 02:11:07;;;;;;;6.53;2.65;;;;;;;22.52;42.47;99412.06;5065724;28;20052;-76
2021/05/23 02:13:33;;;;;;;8.80;3.47;;;;;;;22.61;42.61;99399.16;5035340;28;20041;-76
2021/05/23 02:15:59;;;;;;;12.68;2.92;;;;;;;22.69;42.40;99401.72;4986809;28;20049;-76
2021/05/23 02:18:26;;;;;;;10.30;3.40;;;;;;;22.73;42.49;99413.91;4987007;28;20118;-78
2021/05/23 02:20:53;;;;;;;6.53;2.90;;;;;;;22.76;42.40;99414.34;5019238;28;20096;-76
2021/05/23 02:23:21;;;;;;;8.27;3.40;;;;;;;22.69;42.59;99408.00;5002224;28;20131;-77
2021/05/23 02:25:47;;;;;;;7.07;3.17;;;;;;;22.69;42.54;99418.91;5018482;28;20080;-79
2021/05/23 02:28:14;;;;;;;11.15;3.22;;;;;;;22.62;42.70;99411.72;5018365;28;20423;-76
2021/05/23 02:30:44;;;;;;;8.23;3.10;;;;;;;22.68;42.51;99416.38;5034700;28;20480;-74
2021/05/23 02:33:11;;;;;;;11.93;3.95;;;;;;;22.77;42.49;99415.19;5018731;28;20076;-76
2021/05/23 02:35:39;;;;;;;17.27;3.25;;;;;;;22.86;42.59;99421.31;5002160;28;20044;-74
2021/05/23 02:38:07;;;;;;;12.15;3.13;;;;;;;22.91;42.34;99422.44;5018388;28;20147;-74
2021/05/23 02:40:33;;;;;;;13.75;3.22;;;;;;;22.91;42.30;99422.44;5034985;28;20083;-74
2021/05/23 02:42:59;;;;;;;15.63;3.22;;;;;;;22.90;42.38;99412.53;4986797;28;20068;-76
2021/05/23 02:45:25;;;;;;;6.97;3.40;;;;;;;23.02;42.23;99419.16;5019333;28;20053;-75
2021/05/23 02:47:52;;;;;;;13.02;3.00;;;;;;;23.15;42.66;99428.44;5019092;28;20083;-75
2021/05/23 02:50:21;;;;;;;6.90;3.20;;;;;;;23.20;42.37;99431.38;5034883;28;20037;-72
2021/05/23 02:52:47;;;;;;;14.55;3.00;;;;;;;23.32;42.38;99429.78;5034571;28;20048;-73
2021/05/23 02:55:13;;;;;;;10.48;3.25;;;;;;;23.29;42.48;99421.16;5052869;28;20094;-78
2021/05/23 02:57:40;;;;;;;9.35;3.22;;;;;;;23.42;42.49;99424.78;5020060;28;20045;-75
2021/05/23 03:00:07;;;;;;;12.23;3.30;;;;;;;23.55;42.34;99434.06;5018936;28;20469;-74
2021/05/23 03:02:34;;;;;;;15.43;3.92;;;;;;;23.61;42.20;99425.06;5035324;28;20051;-77
2021/05/23 03:05:00;;;;;;;16.70;3.00;;;;;;;23.70;42.30;99437.50;5036663;28;20064;-76
2021/05/23 03:07:26;;;;;;;17.85;3.88;;;;;;;23.71;42.19;99433.72;5036131;28;20128;-76
2021/05/23 03:09:52;;;;;;;15.95;3.72;;;;;;;23.84;42.34;99438.38;5019763;28;20567;-74
2021/05/23 03:12:18;;;;;;;23.10;3.38;;;;;;;23.96;41.91;99440.31;5036261;28;20060;-73
2021/05/23 03:14:44;;;;;;;17.42;3.10;;;;;;;24.12;41.52;99440.97;5076017;28;20106;-76
2021/05/23 03:17:10;;;;;;;7.05;2.97;;;;;;;24.29;41.16;99442.22;5058028;28;20044;-75
2021/05/23 03:19:36;;;;;;;13.13;3.53;;;;;;;24.35;41.01;99433.19;5038251;28;20081;-78
2021/05/23 03:22:03;;;;;;;9.98;3.58;;;;;;;24.56;41.05;99436.78;5040179;28;20186;-79
2021/05/23 03:24:29;;;;;;;13.98;2.88;;;;;;;24.60;40.46;99435.34;5039142;28;20052;-76
2021/05/23 03:26:55;;;;;;;14.10;3.38;;;;;;;24.73;40.37;99443.50;5047261;28;20412;-76
2021/05/23 03:29:21;;;;;;;11.32;3.10;;;;;;;24.75;39.88;99429.63;5057550;28;20060;-75
2021/05/23 03:31:47;;;;;;;11.40;3.40;;;;;;;24.90;39.29;99433.81;5073958;28;20049;-73
2021/05/23 03:34:13;;;;;;;19.23;3.10;;;;;;;25.00;39.24;99432.53;5074238;28;20045;-76
2021/05/23 03:36:39;;;;;;;14.15;3.35;;;;;;;25.17;38.78;99431.06;5021190;28;20084;-75
2021/05/23 03:39:05;;;;;;;12.40;2.75;;;;;;;25.28;37.95;99427.66;5054960;28;20118;-77
2021/05/23 03:41:32;;;;;;;10.98;2.63;;;;;;;25.31;37.91;99419.00;5021302;28;20041;-76
2021/05/23 03:43:58;;;;;;;12.18;3.25;;;;;;;25.42;37.78;99421.03;5053776;28;20044;-77
2021/05/23 03:46:23;;;;;;;11.82;3.03;;;;;;;25.55;37.09;99430.25;5054052;28;20048;-76
2021/05/23 03:48:50;;;;;;;8.82;3.50;;;;;;;25.65;36.84;99426.00;5020841;28;20041;-77
2021/05/23 03:51:16;;;;;;;17.52;3.20;;;;;;;25.75;36.24;99436.47;5037473;28;20070;-75
2021/05/23 03:53:42;;;;;;;16.48;3.05;;;;;;;25.90;36.18;99431.56;5053707;28;20454;-72
2021/05/23 03:56:08;;;;;;;14.75;3.30;;;;;;;25.96;35.08;99442.72;5037306;28;20044;-79
2021/05/23 03:58:34;;;;;;;13.52;2.90;;;;;;;26.10;35.06;99445.16;5053952;28;20052;-76
2021/05/23 04:01:00;;;;;;;29.38;2.85;;;;;;;26.19;34.35;99426.53;5037438;28;20052;-89
2021/05/23 04:03:27;;;;;;;13.88;2.97;;;;;;;26.28;34.45;99438.88;5004466;28;20568;-79
2021/05/23 04:05:53;;;;;;;17.23;2.97;;;;;;;26.45;33.78;99424.66;5037433;28;20049;-79
2021/05/23 04:08:19;;;;;;;19.42;2.85;;;;;;;26.60;33.78;99422.44;5053806;28;20052;-77
2021/05/23 04:11:05;;;;;;;13.48;3.03;;;;;;;26.73;33.59;99427.78;5018196;28;20149;-81
2021/05/23 04:13:33;;;;;;;10.90;2.53;;;;;;;26.95;32.71;99430.94;4974231;28;20052;-77
2021/05/23 04:15:59;;;;;;;18.73;2.63;;;;;;;26.97;31.29;99438.94;5000779;28;20045;-79
2021/05/23 04:18:24;;;;;;;20.95;2.83;;;;;;;27.07;30.65;99431.84;5017036;28;20091;-79
2021/05/23 04:20:50;;;;;;;28.98;2.75;;;;;;;27.18;30.27;99416.56;4984311;28;20076;-79
2021/05/23 04:23:16;;;;;;;26.95;2.42;;;;;;;27.33;28.47;99433.50;4999740;28;20041;-79
2021/05/23 04:25:42;;;;;;;22.58;2.72;;;;;;;27.46;28.53;99437.16;5016270;28;20164;-77
2021/05/23 04:28:08;;;;;;;19.05;2.58;;;;;;;27.65;28.55;99438.81;5032261;28;20057;-78
2021/05/23 04:30:34;;;;;;;20.92;2.70;;;;;;;27.72;28.17;99428.56;5035448;28;20420;-79
2021/05/23 04:33:01;;;;;;;40.47;3.35;;;;;;;27.84;27.95;99443.22;5018227;28;20088;-78
2021/05/23 04:35:27;;;;;;;32.50;3.10;;;;;;;28.00;27.96;99435.38;5016227;28;20064;-78
2021/05/23 04:37:54;;;;;;;25.38;2.92;;;;;;;28.16;27.52;99448.44;4999715;28;20116;-77
2021/05/23 04:40:20;;;;;;;23.00;2.97;;;;;;;28.17;27.21;99432.78;5033238;28;20056;-77
2021/05/23 04:42:47;;;;;;;28.85;3.15;;;;;;;28.24;26.92;99444.53;5034114;28;20049;-77
2021/05/23 04:45:15;;;;;;;25.33;3.00;;;;;;;28.28;27.14;99432.84;5033797;28;20041;-78
2021/05/23 04:47:41;;;;;;;27.98;3.05;;;;;;;28.50;26.90;99448.78;5000198;28;20096;-77
2021/05/23 04:50:07;;;;;;;21.75;2.75;;;;;;;28.50;26.37;99444.13;5034479;28;20428;-78
2021/05/23 04:52:34;;;;;;;26.05;3.30;;;;;;;28.71;26.39;99455.63;5016513;28;20140;-77
2021/05/23 04:55:00;;;;;;;19.30;2.80;;;;;;;28.76;26.29;99437.31;5000406;28;20037;-78
2021/05/23 04:57:26;;;;;;;22.80;2.88;;;;;;;28.92;26.32;99451.44;5016553;28;20049;-77
2021/05/23 04:59:53;;;;;;;28.23;2.72;;;;;;;29.14;26.48;99448.94;5000047;28;20366;-76
2021/05/23 05:02:19;;;;;;;21.25;3.13;;;;;;;29.29;26.47;99465.78;5000023;28;20045;-75
2021/05/23 05:04:45;;;;;;;26.30;4.22;;;;;;;29.27;26.19;99457.78;5000182;28;20042;-78
2021/05/23 05:07:11;;;;;;;16.63;2.40;;;;;;;29.34;25.72;99459.56;4999975;28;20041;-78
2021/05/23 05:09:37;;;;;;;18.38;2.65;;;;;;;29.55;25.90;99460.84;4983766;28;20033;-77
2021/05/23 05:12:04;;;;;;;21.10;3.22;;;;;;;29.76;25.99;99466.56;4990040;28;20080;-78
2021/05/23 05:14:30;;;;;;;29.60;3.28;;;;;;;29.88;24.61;99468.44;5019440;28;20052;-78
2021/05/23 05:16:56;;;;;;;32.72;3.60;;;;;;;29.63;23.74;99455.81;5052401;28;20044;-77
2021/05/23 05:19:22;;;;;;;29.70;3.47;;;;;;;29.73;23.85;99455.19;5003155;28;20465;-79
2021/05/23 05:21:48;;;;;;;38.13;3.50;;;;;;;29.85;24.00;99444.13;5019632;28;20087;-78
2021/05/23 05:24:14;;;;;;;36.20;3.63;;;;;;;29.95;23.84;99442.41;4986743;28;20045;-79
2021/05/23 05:26:40;;;;;;;28.30;3.00;;;;;;;29.99;23.86;99449.09;5035778;28;20128;-80
2021/05/23 05:29:07;;;;;;;22.88;3.70;;;;;;;30.21;23.94;99471.31;5052290;28;20044;-79
2021/05/23 05:31:33;;;;;;;23.35;2.97;;;;;;;30.24;23.77;99459.78;5002720;28;20049;-77
2021/05/23 05:33:59;;;;;;;14.98;3.28;;;;;;;30.42;23.87;99460.63;5051916;28;20511;-77
2021/05/23 05:36:25;;;;;;;30.70;3.42;;;;;;;30.57;23.75;99441.56;5034334;28;20450;-76
2021/05/23 05:38:51;;;;;;;23.13;3.42;;;;;;;30.73;23.54;99468.31;5019849;28;20041;-78
2021/05/23 05:41:17;;;;;;;27.83;4.03;;;;;;;30.68;23.56;99443.41;5035651;28;20052;-78
2021/05/23 05:43:44;;;;;;;26.00;3.30;;;;;;;30.70;23.89;99446.75;5035816;28;20049;-77
2021/05/23 05:46:09;;;;;;;27.50;3.58;;;;;;;30.78;23.30;99475.03;5002310;28;20044;-77
2021/05/23 05:48:36;;;;;;;21.35;3.60;;;;;;;30.58;23.30;99462.56;5019228;28;20071;-77
2021/05/23 05:51:02;;;;;;;20.30;3.25;;;;;;;30.53;23.24;99443.16;5051857;28;20481;-78
2021/05/23 05:53:28;;;;;;;27.23;3.67;;;;;;;30.65;23.54;99441.13;5002214;28;20051;-77
2021/05/23 05:55:54;;;;;;;21.25;3.47;;;;;;;30.76;23.53;99428.38;5002403;28;20044;-80
2021/05/23 05:58:20;;;;;;;23.10;3.20;;;;;;;30.87;23.38;99429.34;5051527;28;20128;-78
2021/05/23 06:00:46;;;;;;;26.52;4.28;;;;;;;30.92;23.15;99422.00;4986607;28;20077;-77
2021/05/23 06:03:12;;;;;;;29.27;3.53;;;;;;;30.99;23.47;99443.88;5035432;28;20175;-78
2021/05/23 06:05:38;;;;;;;25.35;4.28;;;;;;;31.01;23.00;99440.88;5018723;28;20091;-79
2021/05/23 06:08:04;;;;;;;35.85;3.70;;;;;;;31.04;23.02;99446.72;5051548;28;20064;-77
2021/05/23 06:10:30;;;;;;;24.35;3.47;;;;;;;31.10;22.84;99445.69;5018309;28;20037;-77
2021/05/23 06:12:56;;;;;;;35.60;3.50;;;;;;;31.13;22.96;99449.88;4999101;28;20408;-77
2021/05/23 06:15:22;;;;;;;32.05;3.28;;;;;;;31.12;22.95;99465.63;4998769;28;20115;-77
2021/05/23 06:17:48;;;;;;;27.02;3.53;;;;;;;31.32;22.90;99458.75;4998784;28;20477;-76
2021/05/23 06:20:14;;;;;;;22.48;3.42;;;;;;;31.45;22.96;99444.56;5015330;28;20041;-76
2021/05/23 06:22:40;;;;;;;34.00;3.95;;;;;;;31.27;22.87;99453.13;4998947;28;20056;-77
2021/05/23 06:25:06;;;;;;;33.08;3.78;;;;;;;31.38;22.82;99449.44;4998793;28;20049;-76
2021/05/23 06:27:33;;;;;;;25.30;2.95;;;;;;;31.40;22.53;99463.81;5000300;28;20050;-79
2021/05/23 06:29:59;;;;;;;24.65;3.30;;;;;;;31.28;22.78;99452.84;4984086;28;20076;-81
2021/05/23 06:32:25;;;;;;;35.15;4.05;;;;;;;31.53;23.02;99448.81;4982841;28;20392;-77
2021/05/23 06:34:51;;;;;;;26.95;2.92;;;;;;;31.50;22.63;99443.78;4982305;28;20047;-77
2021/05/23 06:37:17;;;;;;;27.13;4.05;;;;;;;31.63;22.76;99447.00;4966288;28;20140;-77
2021/05/23 06:39:43;;;;;;;24.25;3.28;;;;;;;31.68;22.53;99433.22;4998569;28;20092;-77
2021/05/23 06:42:09;;;;;;;28.13;2.80;;;;;;;31.65;22.75;99430.97;4982356;28;20045;-78
2021/05/23 06:44:35;;;;;;;21.45;3.10;;;;;;;31.74;22.79;99430.50;4998273;28;20146;-82
2021/05/23 06:47:01;;;;;;;23.50;3.20;;;;;;;32.01;23.19;99445.25;4985594;28;20048;-79
2021/05/23 06:49:27;;;;;;;28.67;3.60;;;;;;;32.17;22.55;99430.44;4986087;28;20546;-78
2021/05/23 06:51:53;;;;;;;25.77;3.10;;;;;;;32.20;22.60;99436.53;4986083;28;20057;-77
2021/05/23 06:54:19;;;;;;;22.05;3.60;;;;;;;32.26;22.72;99424.44;4985932;28;20076;-80
2021/05/23 06:56:45;;;;;;;34.22;3.80;;;;;;;32.32;21.95;99428.94;4985789;28;20084;-78
2021/05/23 06:59:11;;;;;;;18.65;3.17;;;;;;;32.41;22.02;99432.91;4985825;28;20044;-78
2021/05/23 07:01:37;;;;;;;21.15;3.20;;;;;;;32.42;22.00;99420.72;4986497;28;20041;-78
2021/05/23 07:04:04;;;;;;;31.40;3.63;;;;;;;32.47;21.87;99420.78;5002353;28;20073;-79
2021/05/23 07:06:30;;;;;;;24.15;3.75;;;;;;;32.57;22.08;99420.00;5001887;28;20132;-77
2021/05/23 07:08:56;;;;;;;26.08;4.18;;;;;;;32.70;22.08;99425.09;4985800;28;20041;-77
2021/05/23 07:11:22;;;;;;;29.63;3.78;;;;;;;32.89;22.02;99423.56;5012975;28;20397;-79
2021/05/23 07:13:48;;;;;;;36.20;4.10;;;;;;;32.75;22.35;99422.38;5021284;28;20482;-77
2021/05/23 07:16:14;;;;;;;21.60;4.20;;;;;;;32.74;21.43;99429.00;5037943;28;20052;-77
2021/05/23 07:18:40;;;;;;;29.40;4.65;;;;;;;32.84;21.36;99422.72;5054955;28;20071;-79
2021/05/23 07:21:06;;;;;;;33.05;3.88;;;;;;;32.87;21.82;99427.69;4990948;28;20045;-80
2021/05/23 07:23:32;;;;;;;28.55;4.43;;;;;;;32.77;21.56;99430.41;5021722;28;20048;-77
2021/05/23 07:25:58;;;;;;;26.83;4.28;;;;;;;32.91;21.19;99425.22;5005267;28;20488;-77
2021/05/23 07:28:25;;;;;;;34.72;4.70;;;;;;;33.17;21.50;99420.69;5037352;28;20045;-77
2021/05/23 07:30:51;;;;;;;24.48;3.60;;;;;;;33.33;21.22;99428.00;5037603;28;20139;-76
2021/05/23 07:33:18;;;;;;;22.45;3.42;;;;;;;33.29;21.36;99426.88;5037448;28;20048;-76
2021/05/23 07:35:44;;;;;;;23.00;3.30;;;;;;;33.51;21.68;99413.72;5037553;28;20384;-76
2021/05/23 07:38:10;;;;;;;19.80;3.40;;;;;;;33.77;21.25;99419.31;5004619;28;20041;-78
2021/05/23 07:40:37;;;;;;;22.58;3.50;;;;;;;33.84;21.01;99423.47;5037969;28;20217;-79
2021/05/23 07:43:03;;;;;;;24.58;3.00;;;;;;;33.80;20.42;99404.91;5022593;28;20056;-78
2021/05/23 07:45:32;;;;;;;26.35;3.67;;;;;;;33.88;20.20;99418.22;4988932;28;20041;-77
2021/05/23 07:47:58;;;;;;;29.63;3.80;;;;;;;33.99;19.87;99397.75;5004827;28;20086;-77
2021/05/23 07:50:24;;;;;;;33.63;3.50;;;;;;;33.96;20.12;99412.13;5007125;28;20132;-76
2021/05/23 07:52:50;;;;;;;32.70;3.70;;;;;;;34.18;20.40;99394.44;5020558;28;20044;-77
2021/05/23 07:55:16;;;;;;;22.70;4.28;;;;;;;34.63;19.82;99387.22;5003926;28;20136;-76
2021/05/23 07:57:42;;;;;;;30.10;3.67;;;;;;;34.96;19.59;99388.56;5053320;28;20045;-77
2021/05/23 08:00:09;;;;;;;35.33;4.55;;;;;;;34.59;19.77;99406.41;5020952;28;20041;-77
2021/05/23 08:02:36;;;;;;;27.60;3.75;;;;;;;34.55;19.58;99389.47;5020667;28;20041;-75
2021/05/23 08:05:03;;;;;;;26.27;3.97;;;;;;;34.63;19.70;99384.47;5004266;28;20407;-77
2021/05/23 08:07:29;;;;;;;30.60;4.43;;;;;;;34.85;19.23;99376.63;5036749;28;20099;-76
2021/05/23 08:09:55;;;;;;;32.03;4.03;;;;;;;34.96;19.55;99383.84;5020401;28;20047;-79
2021/05/23 08:12:21;;;;;;;24.80;3.58;;;;;;;35.18;19.41;99379.91;5020576;28;20065;-78
2021/05/23 08:14:47;;;;;;;41.22;4.30;;;;;;;35.08;19.47;99375.22;5036224;28;20052;-77
2021/05/23 08:17:14;;;;;;;44.55;4.28;;;;;;;35.33;19.54;99376.22;5020171;28;20048;-77
2021/05/23 08:19:40;;;;;;;27.02;3.63;;;;;;;35.44;19.41;99389.78;5036798;28;20072;-77
2021/05/23 08:22:05;;;;;;;29.08;4.03;;;;;;;35.57;19.30;99379.19;5020053;28;20045;-77
2021/05/23 08:24:32;;;;;;;36.22;4.13;;;;;;;35.70;18.86;99373.00;5019985;28;20045;-78
2021/05/23 08:27:03;;;;;;;28.52;4.40;;;;;;;35.69;18.96;99377.72;5004833;28;20377;-76
2021/05/23 08:29:30;;;;;;;25.92;4.13;;;;;;;35.86;19.07;99373.72;5053564;28;20143;-79
2021/05/23 08:32:00;;;;;;;39.55;4.15;;;;;;;35.86;18.64;99388.47;5053329;28;20045;-78
2021/05/23 08:34:26;;;;;;;28.08;3.95;;;;;;;35.92;18.65;99367.84;5036659;28;20051;-76
2021/05/23 08:36:52;;;;;;;30.58;4.05;;;;;;;36.09;18.83;99366.63;5020158;28;20037;-79
2021/05/23 08:39:19;;;;;;;46.17;5.13;;;;;;;36.43;18.48;99373.00;5036275;28;20067;-77
2021/05/23 08:41:48;;;;;;;26.80;4.50;;;;;;;36.33;18.57;99373.09;5020155;28;20609;-77
2021/05/23 08:44:18;;;;;;;27.95;3.95;;;;;;;36.49;18.49;99376.63;5020082;28;20468;-78
2021/05/23 08:46:46;;;;;;;29.25;4.10;;;;;;;36.58;18.51;99362.88;5036760;28;20136;-79
2021/05/23 08:49:15;;;;;;;34.47;4.15;;;;;;;36.74;18.09;99369.94;5054111;28;20087;-77
2021/05/23 08:51:41;;;;;;;29.25;3.80;;;;;;;37.01;18.09;99354.63;5020082;28;20127;-76
2021/05/23 08:54:07;;;;;;;27.48;4.28;;;;;;;37.12;17.96;99357.00;5003291;28;20041;-77
2021/05/23 08:56:33;;;;;;;32.35;4.03;;;;;;;37.13;17.91;99352.28;5036082;28;20051;-76
2021/05/23 08:58:59;;;;;;;35.72;5.35;;;;;;;36.81;18.08;99345.38;5035900;28;20408;-77
2021/05/23 09:01:26;;;;;;;31.20;4.60;;;;;;;36.84;18.11;99339.19;5003514;28;20062;-79
2021/05/23 09:03:59;;;;;;;33.95;5.07;;;;;;;37.09;17.95;99345.66;5036660;28;20088;-77
2021/05/23 09:06:35;;;;;;;32.25;4.90;;;;;;;37.26;17.52;99343.16;5036089;28;20048;-76
2021/05/23 09:09:08;;;;;;;28.35;3.97;;;;;;;37.47;17.78;99345.72;5021255;28;20049;-76
2021/05/23 09:11:35;;;;;;;22.92;4.20;;;;;;;37.63;17.45;99341.59;5019578;28;20087;-76
2021/05/23 09:14:01;;;;;;;29.60;4.57;;;;;;;37.59;17.39;99329.38;5036113;28;20166;-77
2021/05/23 09:16:36;;;;;;;32.63;4.05;;;;;;;37.93;17.29;99336.69;4987093;28;20499;-76
2021/05/23 09:19:02;;;;;;;33.33;4.90;;;;;;;38.06;17.15;99319.16;5036174;28;20041;-77
2021/05/23 09:21:29;;;;;;;31.90;4.00;;;;;;;37.96;16.99;99330.50;5019310;28;20517;-77
2021/05/23 09:23:57;;;;;;;33.88;4.38;;;;;;;37.88;17.23;99327.28;5052082;28;20132;-77
2021/05/23 09:26:28;;;;;;;33.92;4.90;;;;;;;38.04;16.86;99321.44;5052598;28;20053;-76
2021/05/23 09:28:54;;;;;;;25.27;4.88;;;;;;;38.41;16.85;99309.38;5035990;28;20044;-76
2021/05/23 09:31:24;;;;;;;62.42;5.97;;;;;;;38.39;16.67;99312.44;5035235;28;20076;-76
2021/05/23 09:33:52;;;;;;;34.55;4.85;;;;;;;38.33;16.64;99302.50;5036197;28;20087;-77
2021/05/23 09:36:18;;;;;;;;;;;;;;;38.61;16.48;99310.94;5019503;28;20051;-76
2021/05/23 09:38:57;;;;;;;37.97;5.07;;;;;;;38.71;16.41;99299.56;5051988;28;19923;-77
2021/05/23 09:41:30;;;;;;;33.30;3.80;;;;;;;39.25;16.24;99311.91;5052154;28;20044;-76
2021/05/23 09:44:29;;;;;;;41.72;4.65;;;;;;;39.57;15.80;99287.69;5036620;28;20063;-78
2021/05/23 09:47:03;;;;;;;35.72;4.43;;;;;;;39.69;16.01;99298.34;4998422;28;20044;-76
2021/05/23 09:49:30;;;;;;;27.23;3.55;;;;;;;40.10;15.42;99292.56;5035945;28;20045;-77
2021/05/23 09:52:00;;;;;;;29.55;4.47;;;;;;;40.12;15.13;99290.28;5018823;28;20052;-79
2021/05/23 09:54:28;;;;;;;52.58;4.25;;;;;;;40.01;15.01;99302.84;5019273;28;20087;-77
2021/05/23 09:56:54;;;;;;;30.63;4.60;;;;;;;40.15;14.93;99289.66;5019186;28;20130;-77
2021/05/23 09:59:25;;;;;;;29.50;3.97;;;;;;;40.08;15.16;99297.63;5018835;28;20450;-77
2021/05/23 10:01:52;;;;;;;40.85;4.13;;;;;;;40.43;14.84;99292.25;5003001;28;20408;-79
2021/05/23 10:04:25;;;;;;;25.15;3.70;;;;;;;39.98;14.87;99303.50;5018180;28;20040;-78
2021/05/23 10:07:01;;;;;;;30.55;4.03;;;;;;;40.05;15.12;99289.88;5018636;28;20056;-78
2021/05/23 10:09:28;;;;;;;43.45;4.63;;;;;;;40.34;15.30;99288.59;5002360;28;20577;-77
2021/05/23 10:11:54;;;;;;;31.92;3.70;;;;;;;40.80;15.01;99290.13;5018567;28;20061;-78
2021/05/23 10:14:20;;;;;;;34.38;4.03;;;;;;;40.55;15.27;99298.09;5001962;28;20041;-77
2021/05/23 10:16:50;;;;;;;40.13;4.28;;;;;;;40.39;15.19;99285.66;5018507;28;20045;-76
2021/05/23 10:19:26;;;;;;;20.67;3.67;;;;;;;40.95;15.20;99284.06;5035239;28;20132;-77
2021/05/23 10:21:52;;;;;;;36.53;4.05;;;;;;;41.39;15.04;99293.44;5039905;28;20478;-78
2021/05/23 10:24:38;;;;;;;32.27;3.63;;;;;;;41.27;14.38;99290.47;5007127;28;20194;-77
2021/05/23 10:27:09;;;;;;;49.70;6.10;;;;;;;41.46;14.93;99302.22;5022387;28;20052;-77
2021/05/23 10:29:36;;;;;;;25.30;3.85;;;;;;;41.78;14.59;99288.84;5039767;28;20059;-76
2021/05/23 10:32:05;;;;;;;19.27;3.30;;;;;;;41.79;14.36;99296.09;5022636;28;20037;-77
2021/05/23 10:34:42;;;;;;;25.42;3.67;;;;;;;41.76;14.23;99296.78;5038950;28;20072;-78
2021/05/23 10:37:10;;;;;;;29.10;3.88;;;;;;;41.88;14.12;99289.34;5023059;28;20051;-77
2021/05/23 10:39:38;;;;;;;24.15;3.42;;;;;;;42.14;14.22;99286.50;5023380;28;20040;-77
2021/05/23 10:42:05;;;;;;;29.30;3.58;;;;;;;42.20;14.22;99290.78;5022651;28;20140;-77
2021/05/23 10:44:42;;;;;;;32.33;3.83;;;;;;;41.29;14.60;99308.59;5005931;28;20049;-76
2021/05/23 10:47:15;;;;;;;32.70;3.72;;;;;;;40.42;15.37;99299.00;5022979;28;20072;-78
2021/05/23 10:49:56;;;;;;;22.83;3.33;;;;;;;40.40;15.09;99298.50;5040519;28;20060;-77
2021/05/23 10:52:24;;;;;;;31.33;3.75;;;;;;;40.57;15.33;99284.63;5040318;28;20088;-78
2021/05/23 10:55:13;;;;;;;26.65;3.72;;;;;;;40.09;15.00;99307.69;5023784;28;20041;-79
2021/05/23 10:57:40;;;;;;;34.17;5.10;;;;;;;40.66;14.69;99302.31;5022208;28;20044;-77
2021/05/23 11:00:06;;;;;;;26.95;4.07;;;;;;;41.33;14.43;99286.31;5021730;28;20049;-77
2021/05/23 11:02:42;;;;;;;26.27;3.37;;;;;;;41.66;14.25;99287.53;5021957;28;20054;-76
2021/05/23 11:05:16;;;;;;;19.23;3.33;;;;;;;42.40;13.63;99282.81;5054948;28;20049;-77
2021/05/23 11:08:01;;;;;;;33.65;3.50;;;;;;;42.11;14.17;99292.78;5055780;28;20033;-79
2021/05/23 11:10:31;;;;;;;23.45;3.03;;;;;;;42.26;14.38;99299.06;5054821;28;20064;-78
2021/05/23 11:13:00;;;;;;;22.02;3.17;;;;;;;42.46;14.08;99287.09;5038148;28;20053;-77
2021/05/23 11:15:38;;;;;;;32.28;3.65;;;;;;;43.00;13.73;99290.19;5005249;28;20056;-78
2021/05/23 11:18:04;;;;;;;29.35;3.53;;;;;;;42.75;13.81;99285.50;5054888;28;20044;-76
2021/05/23 11:20:30;;;;;;;37.72;3.67;;;;;;;43.33;13.66;99275.41;5037946;28;20041;-79
2021/05/23 11:23:01;;;;;;;21.10;3.38;;;;;;;43.48;13.42;99283.25;5005132;28;20044;-77
2021/05/23 11:25:28;;;;;;;21.25;4.13;;;;;;;43.76;13.30;99269.44;5005258;28;20519;-77
2021/05/23 11:28:18;;;;;;;30.42;3.95;;;;;;;44.57;13.18;99267.94;5021022;28;20192;-79